NATURA VA

 METAR AND TAF INFORMATION
METAR FOR LEGR
ADDS - METARS form results

(0325 UTC 16 January 2019)
Data provider http://aviationweather.gov/metar/data/
 
METAR text: LEGR 160300Z AUTO 00000KT 8000 NSC M01/M02 Q1021
Conditions at: LEGR (GRANADA AIRPORT , ES) observed 0300 UTC 16 January 2019
Temperature: -1.0°C (30°F)
Dewpoint: -2.0°C (28°F) [RH = 93%]
Pressure (altimeter): 30.15 inches Hg (1021.0 mb)
Winds: calm
Visibility: 5 miles ( 8 km)
Ceiling: at least 12,000 feet AGL
Clouds: sky clear below 12,000 feet AGL
Weather: no significant weather observed at this time

METAR text: LEGR 160230Z AUTO 00000KT 8000 NSC M00/M01 Q1021
Conditions at: LEGR (GRANADA AIRPORT , ES) observed 0230 UTC 16 January 2019
Temperature: 0.0°C (32°F)
Dewpoint: -1.0°C (30°F) [RH = 93%]
Pressure (altimeter): 30.15 inches Hg (1021.0 mb)
Winds: calm
Visibility: 5 miles ( 8 km)
Ceiling: at least 12,000 feet AGL
Clouds: sky clear below 12,000 feet AGL
Weather: no significant weather observed at this time

Forecast for: LEGR (GRANADA AIRPORT , ES)
Text: TAF LEGR 160200Z 1603/1703 VRB03KT CAVOK TX13/1615Z TNM02/1607Z
Forecast period: 0300 UTC 16 January 2019 to 0300 UTC 17 January 2019
Forecast type: FROM: standard forecast or significant change
Winds: variable direction winds at 3 MPH (3 knots; 1.5 m/s)
Visibility: 6 or more miles 10+ km)
Ceiling: unknown
Clouds: missing
Weather: no significant weather forecast for this period
Text: PROB30
Forecast period: 0300 to 1000 UTC 16 January 2019
Forecast type: TEMPORARY: The following changes expected for less than half the time period
Visibility: 2.49 miles (4.01 km)
Ceiling: 1000 feet AGL
Clouds: broken clouds at 1000 feet AGL
Weather: BR  (mist)

 AIRPORT MAP

 RUNWAY INFORMATION
Runway 09 Runway length 9514 ft Runway width 148 ft
Runway elevation 1842 ft Runway displaced threshold 0 ft Runway heading 90
Runway 27 Runway length 9514 ft Runway width 148 ft
Runway elevation 1860 ft Runway displaced threshold 0 ft Runway heading 270

 AIRPORT FREQUENCIES
Type GND Name GND Frequency 121.7 MHZ
Type TWR Name TWR Frequency 118.85 MHZ

 AIRPORT NEAR NAVIGATION AIDS
Type VOR-DME Name Granada Frequency 113400 KHZ



Powered by Virtual Airlines Manager [v2.6.2]